createdAt,value
2023-04-01T00:02:10.031Z,98198.94
2023-04-01T00:04:37.613Z,98202.38
2023-04-01T00:07:05.420Z,98197.97
2023-04-01T00:09:32.934Z,98198.44
2023-04-01T00:12:00.561Z,98201.66
2023-04-01T00:14:28.206Z,98195.41
2023-04-01T00:16:57.771Z,98197.41
2023-04-01T00:19:25.415Z,98205.63
2023-04-01T00:21:53.168Z,98200.03
2023-04-01T00:24:20.673Z,98196.97
2023-04-01T00:26:48.839Z,98206.63
2023-04-01T00:29:16.328Z,98209.28
2023-04-01T00:31:43.959Z,98210.44
2023-04-01T00:34:12.777Z,98209.34
2023-04-01T00:36:40.694Z,98202.69
2023-04-01T00:39:08.498Z,98201.13
2023-04-01T00:41:36.442Z,98193.81
2023-04-01T00:44:25.494Z,98197.00
2023-04-01T00:46:53.547Z,98193.16
2023-04-01T00:49:25.710Z,98194.03
2023-04-01T00:51:55.557Z,98188.03
2023-04-01T00:54:23.961Z,98192.53
2023-04-01T00:56:56.813Z,98185.09
2023-04-01T00:59:27.255Z,98187.38
2023-04-01T01:01:54.833Z,98188.88
2023-04-01T01:04:25.849Z,98188.47
2023-04-01T01:06:59.320Z,98187.91
2023-04-01T01:09:33.073Z,98196.53
2023-04-01T01:12:07.356Z,98188.97
2023-04-01T01:14:47.451Z,98191.66
2023-04-01T01:17:22.040Z,98191.94
2023-04-01T01:20:26.112Z,98191.53
2023-04-01T01:23:04.330Z,98186.47
2023-04-01T01:25:37.751Z,98184.56
2023-04-01T01:28:17.638Z,98192.00
2023-04-01T01:30:50.068Z,98186.59
2023-04-01T01:33:37.462Z,98188.50
2023-04-01T01:36:11.221Z,98186.53
2023-04-01T01:38:39.434Z,98182.34
2023-04-01T01:41:08.651Z,98184.78
2023-04-01T01:43:40.669Z,98186.72
2023-04-01T01:46:11.427Z,98188.88
2023-04-01T01:48:39.410Z,98193.81
2023-04-01T01:51:08.926Z,98193.00
2023-04-01T01:53:37.112Z,98192.81
2023-04-01T01:56:05.376Z,98195.16
2023-04-01T01:58:35.733Z,98194.31
2023-04-01T02:01:04.989Z,98194.06
2023-04-01T02:03:36.646Z,98200.00
2023-04-01T02:06:08.170Z,98205.00
2023-04-01T02:08:37.554Z,98199.41
2023-04-01T02:11:07.692Z,98193.28
2023-04-01T02:13:39.667Z,98191.22
2023-04-01T02:16:14.090Z,98192.66
2023-04-01T02:18:42.136Z,98194.50
2023-04-01T02:21:11.146Z,98200.56
2023-04-01T02:23:39.416Z,98192.59
2023-04-01T02:26:08.169Z,98194.25
2023-04-01T02:28:36.716Z,98197.28
2023-04-01T02:31:04.682Z,98191.50
2023-04-01T02:33:32.989Z,98202.72
2023-04-01T02:36:01.033Z,98203.09
2023-04-01T02:38:29.835Z,98194.78
2023-04-01T02:41:00.360Z,98200.22
2023-04-01T02:43:28.016Z,98197.19
2023-04-01T02:45:55.832Z,98193.44
2023-04-01T02:48:23.574Z,98195.75
2023-04-01T02:50:51.338Z,98195.59
2023-04-01T02:53:18.958Z,98207.78
2023-04-01T02:55:50.792Z,98200.91
2023-04-01T02:58:18.579Z,98204.88
2023-04-01T03:00:46.117Z,98209.97
2023-04-01T03:03:14.544Z,98210.63
2023-04-01T03:05:42.248Z,98214.75
2023-04-01T03:08:09.894Z,98208.91
2023-04-01T03:10:37.402Z,98203.91
2023-04-01T03:13:07.196Z,98204.16
2023-04-01T03:15:34.874Z,98210.69
2023-04-01T03:18:02.614Z,98207.69
2023-04-01T03:20:30.231Z,98213.13
2023-04-01T03:22:58.000Z,98206.81
2023-04-01T03:25:25.955Z,98212.34
2023-04-01T03:27:53.468Z,98210.13
2023-04-01T03:30:22.479Z,98212.44
2023-04-01T03:32:50.071Z,98207.69
2023-04-01T03:35:17.714Z,98211.19
2023-04-01T03:37:45.387Z,98211.69
2023-04-01T03:40:13.551Z,98215.59
2023-04-01T03:42:41.281Z,98214.34
2023-04-01T03:45:09.110Z,98214.09
2023-04-01T03:47:37.939Z,98216.75
2023-04-01T03:50:06.264Z,98228.34
2023-04-01T03:52:33.818Z,98223.69
2023-04-01T03:55:01.690Z,98221.94
2023-04-01T03:57:29.385Z,98227.56
2023-04-01T03:59:56.873Z,98223.69
2023-04-01T04:02:24.473Z,98225.84
2023-04-01T04:04:53.343Z,98224.56
2023-04-01T04:07:20.842Z,98232.59
2023-04-01T04:09:48.723Z,98231.31
2023-04-01T04:12:16.210Z,98231.72
2023-04-01T04:14:43.687Z,98229.88
2023-04-01T04:17:14.718Z,98237.81
2023-04-01T04:19:42.187Z,98237.03
2023-04-01T04:22:11.341Z,98235.22
2023-04-01T04:24:39.398Z,98237.38
2023-04-01T04:27:07.110Z,98243.63
2023-04-01T04:29:34.601Z,98241.03
2023-04-01T04:32:02.328Z,98245.22
2023-04-01T04:34:29.910Z,98246.16
2023-04-01T04:36:57.405Z,98240.66
2023-04-01T04:39:26.568Z,98245.56
2023-04-01T04:41:54.094Z,98246.28
2023-04-01T04:44:21.594Z,98249.19
2023-04-01T04:46:49.125Z,98241.38
2023-04-01T04:49:16.696Z,98247.72
2023-04-01T04:51:44.225Z,98246.47
2023-04-01T04:54:11.734Z,98247.97
2023-04-01T04:56:40.963Z,98250.63
2023-04-01T04:59:09.606Z,98254.72
2023-04-01T05:01:37.153Z,98253.75
2023-04-01T05:04:04.658Z,98259.16
2023-04-01T05:06:32.845Z,98257.44
2023-04-01T05:09:00.770Z,98263.03
2023-04-01T05:11:28.320Z,98255.19
2023-04-01T05:13:57.133Z,98266.84
2023-04-01T05:16:24.823Z,98271.53
2023-04-01T05:18:52.423Z,98269.53
2023-04-01T05:21:19.910Z,98270.53
2023-04-01T05:23:47.436Z,98267.63
2023-04-01T05:26:16.629Z,98274.19
2023-04-01T05:28:44.316Z,98273.41
2023-04-01T05:31:13.254Z,98272.69
2023-04-01T05:33:41.207Z,98276.94
2023-04-01T05:36:10.213Z,98276.72
2023-04-01T05:38:38.130Z,98280.25
2023-04-01T05:41:06.078Z,98277.53
2023-04-01T05:43:33.573Z,98279.09
2023-04-01T05:46:01.191Z,98281.63
2023-04-01T05:48:30.046Z,98286.16
2023-04-01T05:50:57.514Z,98288.84
2023-04-01T05:53:25.011Z,98292.44
2023-04-01T05:55:52.502Z,98286.97
2023-04-01T05:58:20.010Z,98291.81
2023-04-01T06:00:47.921Z,98292.72
2023-04-01T06:03:15.816Z,98287.59
2023-04-01T06:05:46.139Z,98292.66
2023-04-01T06:08:17.610Z,98290.16
2023-04-01T06:10:55.567Z,98297.41
2023-04-01T06:13:32.206Z,98289.84
2023-04-01T06:16:06.336Z,98290.22
2023-04-01T06:18:49.327Z,98294.63
2023-04-01T06:21:39.294Z,98295.41
2023-04-01T06:24:17.862Z,98298.78
2023-04-01T06:26:50.594Z,98303.09
2023-04-01T06:29:24.346Z,98298.03
2023-04-01T06:32:04.776Z,98294.31
2023-04-01T06:34:43.468Z,98300.59
2023-04-01T06:37:44.797Z,98298.78
2023-04-01T06:40:24.366Z,98300.59
2023-04-01T06:43:01.996Z,98312.34
2023-04-01T06:45:36.693Z,98305.56
2023-04-01T06:48:14.594Z,98309.59
2023-04-01T06:50:46.951Z,98311.97
2023-04-01T06:53:20.978Z,98312.31
2023-04-01T06:55:49.923Z,98319.78
2023-04-01T06:58:22.831Z,98319.13
2023-04-01T07:00:51.913Z,98316.75
2023-04-01T07:03:23.782Z,98319.25
2023-04-01T07:05:51.758Z,98316.03
2023-04-01T07:08:23.319Z,98326.75
2023-04-01T07:10:53.425Z,98320.16
2023-04-01T07:13:23.305Z,98328.91
2023-04-01T07:15:58.218Z,98319.47
2023-04-01T07:18:32.517Z,98326.03
2023-04-01T07:21:00.696Z,98329.84
2023-04-01T07:23:33.459Z,98330.28
2023-04-01T07:26:01.849Z,98332.69
2023-04-01T07:28:32.561Z,98332.84
2023-04-01T07:31:09.750Z,98336.31
2023-04-01T07:33:41.807Z,98335.47
2023-04-01T07:36:15.120Z,98344.41
2023-04-01T07:38:54.580Z,98346.78
2023-04-01T07:41:27.339Z,98349.72
2023-04-01T07:43:56.655Z,98345.13
2023-04-01T07:46:38.311Z,98349.88
2023-04-01T07:49:08.591Z,98343.25
2023-04-01T07:51:40.271Z,98349.38
2023-04-01T07:54:13.082Z,98350.16
2023-04-01T07:56:41.997Z,98358.41
2023-04-01T07:59:15.050Z,98355.06
2023-04-01T08:01:46.511Z,98357.31
2023-04-01T08:04:27.808Z,98360.63
2023-04-01T08:07:01.518Z,98363.97
2023-04-01T08:09:35.266Z,98367.25
2023-04-01T08:12:09.174Z,98364.66
2023-04-01T08:14:48.235Z,98370.19
2023-04-01T08:17:19.372Z,98372.44
2023-04-01T08:19:58.834Z,98376.44
2023-04-01T08:22:29.338Z,98379.28
2023-04-01T08:25:03.582Z,98378.03
2023-04-01T08:27:36.889Z,98378.84
2023-04-01T08:30:07.742Z,98387.00
2023-04-01T08:32:37.987Z,98382.63
2023-04-01T08:35:10.626Z,98379.13
2023-04-01T08:37:42.191Z,98385.53
2023-04-01T08:40:41.850Z,98382.13
2023-04-01T08:43:14.169Z,98384.59
2023-04-01T08:45:50.699Z,98384.75
2023-04-01T08:48:30.445Z,98386.25
2023-04-01T08:51:14.772Z,98390.66
2023-04-01T08:53:52.590Z,98388.91
2023-04-01T08:56:23.303Z,98388.63
2023-04-01T08:59:01.110Z,98391.38
2023-04-01T09:01:44.770Z,98386.22
2023-04-01T09:04:34.620Z,98386.19
2023-04-01T09:07:17.528Z,98387.44
2023-04-01T09:10:09.122Z,98389.06
2023-04-01T09:12:53.988Z,98385.09
2023-04-01T09:15:30.936Z,98389.88
2023-04-01T09:18:25.054Z,98390.38
2023-04-01T09:21:17.756Z,98398.72
2023-04-01T09:24:20.958Z,98395.25
2023-04-01T09:27:11.888Z,98400.84
2023-04-01T09:30:07.846Z,98400.34
2023-04-01T09:33:13.767Z,98399.06
2023-04-01T09:35:46.074Z,98404.94
2023-04-01T09:38:23.250Z,98406.84
2023-04-01T09:40:57.377Z,98403.78
2023-04-01T09:43:30.473Z,98406.69
2023-04-01T09:46:12.787Z,98408.69
2023-04-01T09:49:16.610Z,98407.19
2023-04-01T09:51:55.614Z,98410.78
2023-04-01T09:54:33.800Z,98411.31
2023-04-01T09:57:38.085Z,98411.94
2023-04-01T10:00:22.489Z,98413.31
2023-04-01T10:03:17.791Z,98411.34
2023-04-01T10:06:27.526Z,98427.38
2023-04-01T10:09:25.742Z,98420.75
2023-04-01T10:12:26.066Z,98426.84
2023-04-01T10:15:22.639Z,98431.81
2023-04-01T10:18:16.615Z,98432.59
2023-04-01T10:21:04.547Z,98436.00
2023-04-01T10:23:47.919Z,98438.13
2023-04-01T10:26:34.604Z,98429.19
2023-04-01T10:29:22.134Z,98434.41
2023-04-01T10:32:09.485Z,98428.66
2023-04-01T10:35:04.862Z,98436.03
2023-04-01T10:37:58.276Z,98436.03
2023-04-01T10:40:37.330Z,98429.22
2023-04-01T10:43:21.547Z,98441.91
2023-04-01T10:46:15.709Z,98441.78
2023-04-01T10:48:56.940Z,98445.44
2023-04-01T10:51:40.720Z,98444.84
2023-04-01T10:54:23.512Z,98450.25
2023-04-01T10:56:54.649Z,98448.50
2023-04-01T10:59:38.036Z,98453.03
2023-04-01T11:02:47.891Z,98445.69
2023-04-01T11:05:52.683Z,98449.84
2023-04-01T11:08:52.320Z,98448.91
2023-04-01T11:11:49.318Z,98454.63
2023-04-01T11:14:55.550Z,98453.09
2023-04-01T11:17:44.153Z,98453.94
2023-04-01T11:20:36.259Z,98459.63
2023-04-01T11:23:15.113Z,98460.66
2023-04-01T11:26:02.153Z,98459.13
2023-04-01T11:28:57.933Z,98455.28
2023-04-01T11:31:34.412Z,98457.84
2023-04-01T11:34:07.431Z,98457.16
2023-04-01T11:36:40.257Z,98462.00
2023-04-01T11:39:21.809Z,98456.56
2023-04-01T11:41:59.241Z,98460.59
2023-04-01T11:44:28.955Z,98466.31
2023-04-01T11:47:08.827Z,98470.19
2023-04-01T11:49:46.904Z,98473.56
2023-04-01T11:52:39.702Z,98477.94
2023-04-01T11:55:28.151Z,98479.00
2023-04-01T11:58:12.818Z,98481.59
2023-04-01T12:01:00.218Z,98480.34
2023-04-01T12:04:13.245Z,98486.78
2023-04-01T12:06:44.588Z,98489.75
2023-04-01T12:09:16.187Z,98489.66
2023-04-01T12:11:50.574Z,98492.84
2023-04-01T12:14:23.785Z,98496.69
2023-04-01T12:16:57.446Z,98493.53
2023-04-01T12:19:30.905Z,98501.88
2023-04-01T12:22:14.789Z,98505.16
2023-04-01T12:24:48.583Z,98504.38
2023-04-01T12:27:28.532Z,98500.50
2023-04-01T12:30:08.495Z,98500.72
2023-04-01T12:32:42.081Z,98503.59
2023-04-01T12:35:24.729Z,98505.41
2023-04-01T12:38:15.509Z,98508.59
2023-04-01T12:40:56.218Z,98508.75
2023-04-01T12:44:00.470Z,98508.63
2023-04-01T12:46:34.818Z,98517.19
2023-04-01T12:49:37.754Z,98515.13
2023-04-01T12:52:11.799Z,98523.00
2023-04-01T12:55:01.214Z,98531.75
2023-04-01T12:57:43.489Z,98527.81
2023-04-01T13:00:21.138Z,98532.41
2023-04-01T13:02:59.661Z,98531.88
2023-04-01T13:05:50.823Z,98525.22
2023-04-01T13:08:31.815Z,98540.56
2023-04-01T13:11:07.058Z,98544.06
2023-04-01T13:14:09.301Z,98544.97
2023-04-01T13:16:41.157Z,98552.16
2023-04-01T13:19:12.339Z,98546.22
2023-04-01T13:21:53.557Z,98551.22
2023-04-01T13:24:36.020Z,98550.47
2023-04-01T13:27:08.153Z,98563.97
2023-04-01T13:29:38.587Z,98563.41
2023-04-01T13:32:27.678Z,98568.16
2023-04-01T13:35:15.901Z,98572.72
2023-04-01T13:37:53.985Z,98568.75
2023-04-01T13:40:42.771Z,98575.78
2023-04-01T13:43:16.921Z,98576.31
2023-04-01T13:45:56.984Z,98577.78
2023-04-01T13:48:45.134Z,98588.84
2023-04-01T13:51:35.682Z,98579.09
2023-04-01T13:54:38.490Z,98587.31
2023-04-01T13:57:20.131Z,98591.19
2023-04-01T14:00:02.021Z,98588.94
2023-04-01T14:02:55.760Z,98590.41
2023-04-01T14:05:43.286Z,98589.97
2023-04-01T14:08:22.437Z,98603.75
2023-04-01T14:10:58.707Z,98596.50
2023-04-01T14:13:34.536Z,98606.56
2023-04-01T14:16:16.171Z,98610.75
2023-04-01T14:18:54.427Z,98617.16
2023-04-01T14:21:33.472Z,98622.47
2023-04-01T14:24:31.244Z,98635.97
2023-04-01T14:27:24.554Z,98641.50
2023-04-01T14:30:10.271Z,98654.03
2023-04-01T14:32:45.118Z,98649.13
2023-04-01T14:35:30.100Z,98659.34
2023-04-01T14:38:08.603Z,98659.22
2023-04-01T14:40:47.755Z,98661.91
2023-04-01T14:43:56.225Z,98670.94
2023-04-01T14:46:35.632Z,98668.50
2023-04-01T14:49:04.755Z,98674.25
2023-04-01T14:51:34.449Z,98681.59
2023-04-01T14:54:06.206Z,98680.72
2023-04-01T14:56:42.885Z,98691.16
2023-04-01T14:59:17.554Z,98694.69
2023-04-01T15:01:52.028Z,98702.16
2023-04-01T15:04:39.765Z,98701.22
2023-04-01T15:07:39.717Z,98707.13
2023-04-01T15:10:14.915Z,98711.50
2023-04-01T15:12:48.091Z,98716.78
2023-04-01T15:15:33.962Z,98716.03
2023-04-01T15:18:10.374Z,98719.97
2023-04-01T15:20:58.417Z,98729.69
2023-04-01T15:23:33.388Z,98733.31
2023-04-01T15:26:21.181Z,98740.44
2023-04-01T15:28:59.977Z,98743.81
2023-04-01T15:31:32.001Z,98744.16
2023-04-01T15:34:16.528Z,98752.44
2023-04-01T15:36:47.014Z,98763.84
2023-04-01T15:39:17.755Z,98755.72
2023-04-01T15:41:53.186Z,98771.41
2023-04-01T15:44:50.428Z,98769.44
2023-04-01T15:47:33.711Z,98770.09
2023-04-01T15:50:24.273Z,98782.66
2023-04-01T15:53:01.804Z,98778.22
2023-04-01T15:55:30.576Z,98787.81
2023-04-01T15:58:18.130Z,98794.00
2023-04-01T16:00:52.263Z,98800.75
2023-04-01T16:03:32.013Z,98807.72
2023-04-01T16:06:24.105Z,98798.97
2023-04-01T16:09:04.723Z,98826.19
2023-04-01T16:11:42.332Z,98817.78
2023-04-01T16:14:18.931Z,98822.38
2023-04-01T16:16:58.294Z,98834.03
2023-04-01T16:19:51.136Z,98829.59
2023-04-01T16:22:22.588Z,98840.25
2023-04-01T16:24:53.473Z,98838.97
2023-04-01T16:27:27.528Z,98840.75
2023-04-01T16:29:58.373Z,98837.50
2023-04-01T16:32:36.538Z,98845.31
2023-04-01T16:35:17.277Z,98855.34
2023-04-01T16:37:48.661Z,98851.91
2023-04-01T16:40:26.163Z,98864.56
2023-04-01T16:42:55.893Z,98869.41
2023-04-01T16:45:33.917Z,98874.00
2023-04-01T16:48:09.388Z,98874.81
2023-04-01T16:50:47.742Z,98882.16
2023-04-01T16:53:19.788Z,98892.09
2023-04-01T16:55:51.766Z,98899.16
2023-04-01T16:58:23.445Z,98895.38
2023-04-01T17:00:54.132Z,98912.97
2023-04-01T17:03:28.545Z,98907.34
2023-04-01T17:06:15.928Z,98915.34
2023-04-01T17:08:54.060Z,98914.84
2023-04-01T17:11:25.764Z,98931.53
2023-04-01T17:14:01.854Z,98934.69
2023-04-01T17:16:51.332Z,98932.88
2023-04-01T17:19:29.317Z,98943.22
2023-04-01T17:22:03.011Z,98931.56
2023-04-01T17:24:41.286Z,98952.13
2023-04-01T17:27:21.064Z,98958.66
2023-04-01T17:30:05.143Z,98964.00
2023-04-01T17:32:42.688Z,98964.84
2023-04-01T17:35:15.414Z,98984.72
2023-04-01T17:37:48.194Z,98980.81
2023-04-01T17:40:33.879Z,98987.84
2023-04-01T17:43:06.531Z,98994.41
2023-04-01T17:45:39.593Z,99003.81
2023-04-01T17:48:18.769Z,99010.88
2023-04-01T17:51:12.735Z,99009.09
2023-04-01T17:53:45.713Z,99023.78
2023-04-01T17:56:24.564Z,99023.66
2023-04-01T17:59:00.962Z,99034.81
2023-04-01T18:01:39.067Z,99035.94
2023-04-01T18:04:30.543Z,99036.56
2023-04-01T18:07:34.175Z,99048.72
2023-04-01T18:10:07.021Z,99054.47
2023-04-01T18:12:42.991Z,99055.63
2023-04-01T18:15:17.946Z,99072.75
2023-04-01T18:17:56.573Z,99065.06
2023-04-01T18:20:33.825Z,99068.78
2023-04-01T18:23:05.633Z,99067.56
2023-04-01T18:25:39.120Z,99090.19
2023-04-01T18:28:24.098Z,99095.44
2023-04-01T18:30:55.760Z,99101.84
2023-04-01T18:33:26.574Z,99099.69
2023-04-01T18:35:56.836Z,99106.53
2023-04-01T18:38:30.699Z,99108.47
2023-04-01T18:41:13.059Z,99119.06
2023-04-01T18:43:44.233Z,99124.97
2023-04-01T18:46:19.244Z,99133.25
2023-04-01T18:48:53.701Z,99137.44
2023-04-01T18:51:23.449Z,99143.00
2023-04-01T18:53:54.652Z,99152.16
2023-04-01T18:56:31.319Z,99160.53
2023-04-01T18:59:04.238Z,99168.44
2023-04-01T19:01:34.606Z,99175.03
2023-04-01T19:04:18.668Z,99185.72
2023-04-01T19:06:49.343Z,99188.38
2023-04-01T19:09:25.974Z,99191.75
2023-04-01T19:12:28.294Z,99188.03
2023-04-01T19:15:17.820Z,99194.94
2023-04-01T19:17:53.226Z,99204.84
2023-04-01T19:20:27.284Z,99213.38
2023-04-01T19:23:07.889Z,99212.50
2023-04-01T19:25:39.504Z,99219.09
2023-04-01T19:28:22.918Z,99222.41
2023-04-01T19:30:56.334Z,99225.94
2023-04-01T19:33:43.478Z,99226.88
2023-04-01T19:36:16.527Z,99226.34
2023-04-01T19:38:54.508Z,99244.00
2023-04-01T19:41:33.256Z,99236.75
2023-04-01T19:44:09.033Z,99256.06
2023-04-01T19:46:39.149Z,99245.09
2023-04-01T19:49:20.606Z,99256.50
2023-04-01T19:51:52.453Z,99258.50
2023-04-01T19:54:26.943Z,99267.31
2023-04-01T19:56:59.977Z,99267.81
2023-04-01T19:59:33.728Z,99272.59
2023-04-01T20:02:16.682Z,99285.06
2023-04-01T20:04:45.722Z,99283.19
2023-04-01T20:07:19.790Z,99292.03
2023-04-01T20:09:54.273Z,99292.28
2023-04-01T20:12:31.616Z,99299.16
2023-04-01T20:15:02.401Z,99317.88
2023-04-01T20:17:33.327Z,99313.84
2023-04-01T20:20:02.730Z,99321.44
2023-04-01T20:22:57.104Z,99329.53
2023-04-01T20:25:27.391Z,99340.97
2023-04-01T20:27:57.777Z,99350.75
2023-04-01T20:30:52.805Z,99349.09
2023-04-01T20:33:58.678Z,99357.88
2023-04-01T20:36:28.997Z,99363.34
2023-04-01T20:39:10.097Z,99360.66
2023-04-01T20:41:42.500Z,99366.09
2023-04-01T20:44:12.143Z,99382.56
2023-04-01T20:46:48.347Z,99378.38
2023-04-01T20:49:26.166Z,99376.56
2023-04-01T20:51:56.754Z,99370.06
2023-04-01T20:54:39.026Z,99378.53
2023-04-01T20:57:08.826Z,99376.66
2023-04-01T21:00:00.876Z,99381.75
2023-04-01T21:02:43.690Z,99389.91
2023-04-01T21:05:36.186Z,99391.59
2023-04-01T21:08:11.850Z,99406.72
2023-04-01T21:10:42.782Z,99395.06
2023-04-01T21:13:23.823Z,99412.97
2023-04-01T21:16:01.463Z,99412.78
2023-04-01T21:18:54.661Z,99411.22
2023-04-01T21:21:39.277Z,99412.91
2023-04-01T21:24:32.018Z,99426.31
2023-04-01T21:27:04.673Z,99416.38
2023-04-01T21:29:48.266Z,99437.81
2023-04-01T21:32:27.205Z,99439.19
2023-04-01T21:34:59.809Z,99438.44
2023-04-01T21:37:47.449Z,99443.69
2023-04-01T21:40:31.190Z,99450.94
2023-04-01T21:43:05.984Z,99456.16
2023-04-01T21:45:42.136Z,99465.03
2023-04-01T21:48:35.245Z,99474.97
2023-04-01T21:51:23.826Z,99483.78
2023-04-01T21:54:13.170Z,99489.13
2023-04-01T21:57:27.039Z,99494.38
2023-04-01T21:59:58.892Z,99511.16
2023-04-01T22:02:49.765Z,99491.75
2023-04-01T22:05:19.355Z,99517.34
2023-04-01T22:07:53.165Z,99502.31
2023-04-01T22:10:28.181Z,99511.16
2023-04-01T22:13:01.589Z,99517.38
2023-04-01T22:15:33.505Z,99518.22
2023-04-01T22:18:07.161Z,99545.50
2023-04-01T22:20:38.961Z,99522.69
2023-04-01T22:23:23.019Z,99513.84
2023-04-01T22:25:58.792Z,99529.69
2023-04-01T22:28:30.883Z,99537.66
2023-04-01T22:31:02.025Z,99543.91
2023-04-01T22:33:35.326Z,99541.25
2023-04-01T22:36:09.026Z,99558.91
2023-04-01T22:38:55.879Z,99545.66
2023-04-01T22:41:33.681Z,99551.66
2023-04-01T22:44:01.495Z,99566.75
2023-04-01T22:46:42.191Z,99570.22
2023-04-01T22:49:17.574Z,99574.75
2023-04-01T22:51:48.140Z,99597.59
2023-04-01T22:54:23.695Z,99596.72
2023-04-01T22:56:55.729Z,99607.28
2023-04-01T22:59:26.492Z,99605.50
2023-04-01T23:01:57.456Z,99617.84
2023-04-01T23:04:27.115Z,99623.16
2023-04-01T23:06:58.455Z,99635.56
2023-04-01T23:09:27.906Z,99639.81
2023-04-01T23:11:57.638Z,99635.53
2023-04-01T23:14:38.020Z,99649.66
2023-04-01T23:17:14.671Z,99644.13
2023-04-01T23:19:48.430Z,99656.75
2023-04-01T23:22:22.891Z,99669.06
2023-04-01T23:24:56.340Z,99665.53
2023-04-01T23:27:27.630Z,99676.13
2023-04-01T23:29:55.360Z,99683.19
2023-04-01T23:32:26.977Z,99675.19
2023-04-01T23:34:56.174Z,99683.19
2023-04-01T23:37:24.576Z,99687.56
2023-04-01T23:39:55.347Z,99701.66
2023-04-01T23:42:25.578Z,99699.00
2023-04-01T23:44:55.885Z,99700.78
2023-04-01T23:47:25.203Z,99712.22
2023-04-01T23:49:54.195Z,99719.28
2023-04-01T23:52:24.648Z,99716.63
2023-04-01T23:54:58.316Z,99721.94
2023-04-01T23:57:29.296Z,99723.69
